Time;durP1;ratioP1;P1;durP2;ratioP2;P2;SDS_P1;SDS_P2;PMS_P1;PMS_P2;Temp;Humidity;BMP_temperature;BMP_pressure;BME280_temperature;BME280_humidity;BME280_pressure;Samples;Min_cycle;Max_cycle;Signal;HPM_P1;HPM_P2
2022/11/25 00:01:22;;;;;;;12.87;8.50;;;3.10;99.90;;;3.12;93.04;97935.88;5028737;28;20456;-72
2022/11/25 00:03:50;;;;;;;12.40;8.23;;;3.10;99.90;;;3.13;92.88;97936.72;5041666;28;21200;-75
2022/11/25 00:06:20;;;;;;;13.70;7.63;;;3.10;99.90;;;3.17;92.46;97932.69;5016637;28;20464;-74
2022/11/25 00:08:50;;;;;;;8.50;7.40;;;3.10;99.90;;;3.08;92.62;97929.22;5016957;28;20826;-73
2022/11/25 00:11:18;;;;;;;11.13;7.93;;;3.10;99.90;;;2.97;93.01;97927.72;5042289;28;20458;-74
2022/11/25 00:13:48;;;;;;;11.00;8.50;;;3.00;99.90;;;2.86;93.41;97926.22;5026582;28;20461;-72
2022/11/25 00:16:18;;;;;;;11.67;8.00;;;2.80;99.90;;;2.91;92.80;97923.06;5027079;28;20469;-73
2022/11/25 00:18:48;;;;;;;11.23;7.20;;;2.90;99.90;;;3.04;92.48;97933.22;5027268;28;20460;-72
2022/11/25 00:21:18;;;;;;;14.23;8.27;;;2.90;99.90;;;2.92;92.56;97938.91;5028501;28;20445;-73
2022/11/25 00:23:50;;;;;;;14.40;7.17;;;2.80;99.90;;;2.96;92.77;97936.75;5025020;28;20874;-75
2022/11/25 00:26:18;;;;;;;11.97;8.10;;;2.80;99.90;;;2.95;92.67;97929.72;5015651;28;20784;-77
2022/11/25 00:28:47;;;;;;;13.00;8.20;;;2.80;99.90;;;2.82;93.21;97931.09;5021117;28;20450;-70
2022/11/25 00:31:17;;;;;;;19.83;8.07;;;2.70;99.90;;;2.80;93.26;97933.06;5010230;28;20476;-71
2022/11/25 00:33:46;;;;;;;8.93;7.17;;;2.70;99.90;;;2.88;93.43;97934.06;5022865;28;20460;-72
2022/11/25 00:36:19;;;;;;;13.73;6.93;;;2.70;99.90;;;2.95;92.33;97937.72;5027606;28;20482;-73
2022/11/25 00:38:46;;;;;;;12.70;7.67;;;2.80;99.90;;;3.13;91.74;97939.38;5032121;28;20445;-72
2022/11/25 00:46:45;;;;;;;11.47;7.20;;;2.90;99.90;;;3.03;91.66;97932.38;5031440;28;20436;-73
2022/11/25 00:49:12;;;;;;;11.40;7.67;;;2.90;99.90;;;3.04;91.91;97928.72;5032710;28;20449;-73
2022/11/25 00:51:40;;;;;;;9.67;7.80;;;3.10;99.90;;;2.66;91.22;97877.72;5027290;28;20467;-72
2022/11/25 00:54:07;;;;;;;8.60;6.90;;;3.00;99.90;;;3.11;91.25;97951.06;5040555;28;20462;-71
2022/11/25 00:56:34;;;;;;;10.33;7.50;;;3.10;99.90;;;2.21;91.56;97813.22;5036538;28;20800;-73
2022/11/25 00:59:03;;;;;;;12.03;8.33;;;3.10;99.90;;;3.00;92.42;97951.41;5030103;28;20465;-73
2022/11/25 01:01:31;;;;;;;13.27;8.20;;;3.00;99.90;;;3.00;91.92;97943.41;5027930;28;20453;-73
2022/11/25 01:03:58;;;;;;;14.80;7.90;;;3.00;99.90;;;2.99;91.97;97947.06;5030852;28;20449;-72
2022/11/25 01:06:26;;;;;;;13.03;9.00;;;3.00;99.90;;;3.04;91.37;97950.06;5023740;28;20798;-74
2022/11/25 01:08:54;;;;;;;9.50;8.07;;;3.00;99.90;;;2.94;91.20;97960.91;5031150;28;20454;-73
2022/11/25 01:11:23;;;;;;;10.90;8.67;;;3.00;99.90;;;2.89;91.99;97946.41;5032243;28;20774;-71
2022/11/25 01:13:53;;;;;;;16.07;8.97;;;2.90;99.90;;;2.74;92.87;97939.06;5046348;28;20516;-74
2022/11/25 01:16:23;;;;;;;10.20;8.73;;;2.90;99.90;;;2.77;92.55;97936.06;5026913;28;20442;-72
2022/11/25 01:18:50;;;;;;;18.20;9.00;;;2.90;99.90;;;2.78;92.87;97940.41;5011699;28;20484;-74
2022/11/25 01:21:21;;;;;;;13.40;9.50;;;2.90;99.90;;;2.71;93.36;97938.56;5019259;28;20469;-72
2022/11/25 01:23:49;;;;;;;13.07;9.17;;;2.90;99.90;;;2.70;93.62;97943.09;5024793;28;21007;-72
2022/11/25 01:26:19;;;;;;;13.33;8.30;;;2.90;99.90;;;2.66;93.66;97942.56;5043964;28;20462;-73
2022/11/25 01:28:47;;;;;;;11.33;8.97;;;2.90;99.90;;;2.68;93.88;97950.44;5010813;28;20467;-72
2022/11/25 01:31:19;;;;;;;15.10;9.73;;;2.90;99.90;;;2.68;93.91;97945.09;5026911;28;20458;-73
2022/11/25 01:33:53;;;;;;;14.13;9.33;;;2.90;99.90;;;2.66;93.75;97950.59;5022313;28;20523;-74
2022/11/25 01:36:21;;;;;;;10.47;8.00;;;2.90;99.90;;;2.61;93.15;97939.59;5028734;28;20456;-71
2022/11/25 01:38:51;;;;;;;11.63;8.20;;;2.80;99.90;;;2.49;93.95;97939.06;5024996;28;20460;-71
2022/11/25 01:41:21;;;;;;;11.77;8.80;;;2.80;99.90;;;2.63;93.75;97947.41;5034343;28;20463;-73
2022/11/25 01:44:07;;;;;;;15.33;9.00;;;2.80;99.90;;;2.51;93.97;97944.25;5035562;28;20578;-71
2022/11/25 01:46:48;;;;;;;10.63;8.43;;;2.80;99.90;;;2.42;95.14;97932.72;5049384;28;20452;-71
2022/11/25 01:49:22;;;;;;;12.33;8.60;;;2.80;99.90;;;2.36;94.83;97936.06;5029813;28;20451;-73
2022/11/25 01:51:54;;;;;;;11.20;7.93;;;2.70;99.90;;;2.36;94.76;97938.75;5030920;28;20449;-73
2022/11/25 01:54:27;;;;;;;13.50;9.07;;;2.70;99.90;;;2.30;94.75;97931.38;5015280;28;20472;-72
2022/11/25 01:56:59;;;;;;;10.97;8.17;;;2.60;99.90;;;2.33;93.95;97931.03;5045922;28;20460;-73
2022/11/25 01:59:27;;;;;;;12.07;9.47;;;2.60;99.90;;;2.28;93.54;97928.03;5040984;28;20460;-71
2022/11/25 02:01:56;;;;;;;12.77;8.67;;;2.60;99.90;;;2.26;93.78;97937.03;5030431;28;20451;-73
2022/11/25 02:04:32;;;;;;;11.67;9.40;;;2.60;99.90;;;2.09;93.76;97914.03;5043400;28;20896;-72
2022/11/25 02:07:04;;;;;;;9.40;8.40;;;2.60;99.90;;;2.10;94.23;97921.03;5027824;28;20533;-71
2022/11/25 02:09:33;;;;;;;13.53;8.77;;;2.50;99.90;;;2.30;92.98;97944.72;5018766;28;20454;-73
2022/11/25 02:12:02;;;;;;;15.13;8.50;;;2.50;99.90;;;2.09;93.52;97943.34;5025172;28;20485;-72
2022/11/25 02:14:29;;;;;;;12.90;9.33;;;2.40;99.90;;;2.09;93.41;97932.69;5027756;28;20464;-72
2022/11/25 02:16:56;;;;;;;12.07;8.27;;;2.40;99.90;;;2.16;93.12;97941.69;5026542;28;20470;-72
2022/11/25 02:19:32;;;;;;;13.10;8.93;;;2.40;99.90;;;2.19;92.89;97941.34;5024227;28;20461;-72
2022/11/25 02:22:06;;;;;;;13.23;8.10;;;2.30;99.90;;;2.12;92.85;97943.88;5022023;28;20469;-70
2022/11/25 02:24:41;;;;;;;12.33;7.63;;;2.20;99.90;;;2.14;92.65;97937.53;5045648;28;20506;-72
2022/11/25 02:27:10;;;;;;;11.97;8.30;;;2.20;99.90;;;2.13;93.31;97942.00;5046152;28;20456;-72
2022/11/25 02:29:38;;;;;;;11.63;8.10;;;2.30;99.90;;;2.02;92.81;97939.66;5028579;28;20465;-75
2022/11/25 02:32:06;;;;;;;11.30;8.30;;;2.20;99.90;;;2.04;93.64;97945.66;5026565;28;20455;-73
2022/11/25 02:34:33;;;;;;;7.43;6.63;;;2.20;99.90;;;2.07;93.20;97948.81;5022521;28;20460;-73
2022/11/25 02:37:01;;;;;;;9.57;7.70;;;2.20;99.90;;;2.01;93.10;97951.31;5037542;28;20466;-72
2022/11/25 02:39:29;;;;;;;12.13;8.50;;;2.10;99.90;;;2.03;93.11;97943.97;5027414;28;20453;-72
2022/11/25 02:41:59;;;;;;;12.27;8.67;;;2.10;99.90;;;1.97;92.84;97925.00;5045256;28;20460;-73
2022/11/25 02:44:28;;;;;;;12.47;8.00;;;2.10;99.90;;;1.93;93.04;97938.78;5028313;28;20464;-71
2022/11/25 02:46:55;;;;;;;11.70;8.17;;;2.10;99.90;;;1.84;92.32;97916.63;5042727;28;20511;-73
2022/11/25 02:49:25;;;;;;;7.93;7.13;;;2.10;99.90;;;1.38;92.88;97848.56;5028206;28;20461;-73
2022/11/25 02:51:52;;;;;;;12.90;8.50;;;2.10;99.90;;;1.86;92.63;97940.44;5026657;28;20447;-74
2022/11/25 02:54:20;;;;;;;9.10;7.20;;;2.10;99.90;;;1.82;92.96;97938.13;5021093;28;20467;-72
2022/11/25 02:56:47;;;;;;;10.77;7.93;;;2.00;99.90;;;1.79;93.32;97934.94;5028917;28;21021;-73
2022/11/25 02:59:14;;;;;;;12.37;8.00;;;2.00;99.90;;;1.68;94.03;97920.09;5026673;28;20948;-73
2022/11/25 03:01:42;;;;;;;12.40;7.73;;;2.00;99.90;;;1.79;93.13;97934.94;5028211;28;20463;-73
2022/11/25 03:04:10;;;;;;;13.43;7.50;;;2.00;99.90;;;1.76;93.00;97941.41;5043493;28;20452;-76
2022/11/25 03:06:37;;;;;;;9.70;7.40;;;1.90;99.90;;;1.68;93.08;97928.06;5044274;28;20454;-74
2022/11/25 03:09:04;;;;;;;10.67;8.47;;;1.80;99.90;;;1.72;92.99;97937.41;5026994;28;20463;-72
2022/11/25 03:14:17;;;;;;;11.87;7.23;;;1.80;99.90;;;1.69;92.82;97943.88;5036713;28;20461;-72
2022/11/25 03:16:45;;;;;;;11.93;8.17;;;1.70;99.90;;;1.62;92.85;97940.19;5028370;28;20457;-73
2022/11/25 03:19:12;;;;;;;14.27;8.17;;;1.70;99.90;;;1.61;93.23;97949.19;5028172;28;20453;-73
2022/11/25 03:21:39;;;;;;;9.70;7.13;;;1.70;99.90;;;1.58;92.75;97922.84;5024313;28;20547;-71
2022/11/25 03:24:07;;;;;;;14.50;7.73;;;1.70;99.90;;;1.61;92.60;97949.19;5022356;28;20978;-70
2022/11/25 03:26:34;;;;;;;9.80;6.93;;;1.70;99.90;;;1.51;92.89;97935.16;5026925;28;20497;-72
2022/11/25 03:29:02;;;;;;;9.37;7.63;;;1.60;99.90;;;1.58;92.64;97954.81;5026803;28;20856;-72
2022/11/25 03:31:29;;;;;;;11.67;7.70;;;1.60;99.90;;;1.50;92.13;97920.16;5029542;28;20469;-72
2022/11/25 03:33:58;;;;;;;11.17;7.73;;;1.60;99.90;;;1.67;91.69;97932.56;5035612;28;20453;-73
2022/11/25 03:36:25;;;;;;;15.00;8.87;;;1.70;99.90;;;1.38;92.61;97938.25;5027239;28;20441;-71
2022/11/25 03:38:52;;;;;;;13.07;7.97;;;1.70;99.90;;;1.52;92.45;97944.81;5045006;28;20465;-71
2022/11/25 03:41:19;;;;;;;10.83;7.70;;;1.70;99.90;;;1.33;92.44;97920.09;5025830;28;20457;-72
2022/11/25 03:43:47;;;;;;;12.67;8.10;;;1.70;99.90;;;1.27;91.61;97904.72;5029230;28;20451;-71
2022/11/25 03:46:14;;;;;;;10.77;7.83;;;1.70;99.90;;;1.57;91.43;97947.81;5043637;28;20436;-73
2022/11/25 03:48:42;;;;;;;9.13;7.20;;;1.70;99.90;;;1.63;91.32;97955.19;5029332;28;20500;-72
2022/11/25 03:51:10;;;;;;;11.93;7.77;;;1.80;99.90;;;1.51;92.26;97941.28;5029496;28;20525;-71
2022/11/25 03:53:37;;;;;;;12.07;7.93;;;1.80;99.90;;;1.66;92.05;97952.19;5035109;28;20453;-72
2022/11/25 03:56:06;;;;;;;7.90;7.10;;;1.80;99.90;;;1.34;92.16;97928.91;5027233;28;20468;-73
2022/11/25 03:58:33;;;;;;;16.10;9.13;;;1.80;99.90;;;1.44;93.41;97952.75;5029369;28;20477;-71
2022/11/25 04:01:01;;;;;;;14.00;8.30;;;1.80;99.90;;;1.52;93.87;97950.97;5027075;28;20445;-72
2022/11/25 04:03:29;;;;;;;17.30;8.23;;;1.80;99.90;;;1.48;93.71;97946.13;5030239;28;20791;-72
2022/11/25 04:05:56;;;;;;;11.80;8.73;;;1.80;99.90;;;1.57;93.77;97941.66;5029641;28;20502;-71
2022/11/25 04:08:26;;;;;;;10.03;8.07;;;1.80;99.90;;;1.50;93.05;97941.47;5024093;28;20445;-73
2022/11/25 04:10:53;;;;;;;12.23;8.30;;;1.80;99.90;;;1.60;93.03;97958.19;5010989;28;20480;-73
2022/11/25 04:13:19;;;;;;;13.40;8.63;;;1.70;99.90;;;1.55;93.40;97945.31;5009411;28;20449;-72
2022/11/25 04:15:48;;;;;;;21.00;9.30;;;1.70;99.90;;;1.49;93.53;97945.13;5036727;28;20480;-72
2022/11/25 04:18:16;;;;;;;16.63;9.10;;;1.70;99.90;;;1.25;93.92;97922.69;5028197;28;20473;-71
2022/11/25 04:20:44;;;;;;;12.17;8.83;;;1.70;99.90;;;1.54;93.69;97948.13;5026385;28;20467;-71
2022/11/25 04:23:12;;;;;;;12.13;9.90;;;1.80;99.90;;;1.42;93.85;97953.72;5044141;28;20921;-71
2022/11/25 04:25:41;;;;;;;11.67;9.00;;;1.70;99.90;;;1.42;94.30;97945.75;5013984;28;20454;-72
2022/11/25 04:28:09;;;;;;;13.40;8.70;;;1.70;99.90;;;1.47;93.72;97936.47;5028937;28;20453;-73
2022/11/25 04:30:37;;;;;;;16.80;9.53;;;1.70;99.90;;;1.28;93.54;97901.06;5021257;28;20450;-73
2022/11/25 04:33:05;;;;;;;11.63;8.83;;;1.70;99.90;;;1.48;93.32;97930.16;5038479;28;20464;-72
2022/11/25 04:35:32;;;;;;;13.87;9.50;;;1.70;99.90;;;1.38;93.59;97928.44;5028888;28;20455;-73
2022/11/25 04:37:59;;;;;;;13.53;8.97;;;1.50;99.90;;;1.50;93.20;97933.47;5044062;28;20489;-71
2022/11/25 04:40:27;;;;;;;10.37;8.40;;;1.70;99.90;;;1.32;93.11;97906.94;5021936;28;20465;-72
2022/11/25 04:42:55;;;;;;;14.73;9.60;;;1.70;99.90;;;1.33;92.88;97914.78;5010854;28;21095;-73
2022/11/25 04:45:22;;;;;;;12.63;9.07;;;1.60;99.90;;;1.45;92.81;97925.16;5018274;28;20459;-73
2022/11/25 04:47:50;;;;;;;13.87;10.40;;;1.60;99.90;;;1.35;93.33;97933.22;5028199;28;20444;-72
2022/11/25 04:50:21;;;;;;;13.40;8.77;;;1.60;99.90;;;0.93;93.05;97886.94;5044447;28;20454;-73
2022/11/25 04:52:48;;;;;;;13.27;9.50;;;1.50;99.90;;;1.32;92.83;97938.88;5027547;28;20459;-73
2022/11/25 04:55:15;;;;;;;15.97;9.90;;;1.50;99.90;;;1.25;93.22;97939.53;5043625;28;20460;-74
2022/11/25 04:57:42;;;;;;;16.37;9.90;;;1.40;99.90;;;1.30;93.33;97941.72;5026787;28;20467;-73
2022/11/25 05:00:12;;;;;;;22.70;11.27;;;1.40;99.90;;;1.27;93.10;97947.31;5023654;28;20519;-72
2022/11/25 05:02:40;;;;;;;13.50;10.50;;;1.30;99.90;;;1.32;93.22;97945.03;5023769;28;20461;-72
2022/11/25 05:05:08;;;;;;;14.87;11.50;;;1.40;99.90;;;1.30;93.50;97939.06;5027597;28;20446;-73
2022/11/25 05:07:37;;;;;;;20.97;11.40;;;1.40;99.90;;;1.36;93.77;97941.06;5038638;28;20515;-72
2022/11/25 05:10:06;;;;;;;17.23;11.00;;;1.50;99.90;;;1.19;94.30;97920.69;5027530;28;20551;-71
2022/11/25 05:12:34;;;;;;;13.07;10.40;;;1.60;99.90;;;1.22;94.55;97929.19;5023804;28;20851;-72
2022/11/25 05:15:03;;;;;;;14.70;10.70;;;1.50;99.90;;;1.27;94.28;97931.34;5015958;28;20440;-73
2022/11/25 05:17:32;;;;;;;14.03;9.90;;;1.50;99.90;;;1.23;93.28;97940.66;5020041;28;20455;-71
2022/11/25 05:20:00;;;;;;;17.07;10.57;;;1.40;99.90;;;1.25;93.49;97944.00;5042454;28;20452;-71
2022/11/25 05:22:30;;;;;;;17.63;10.70;;;1.40;99.90;;;1.22;93.37;97941.66;5026174;28;20516;-71
2022/11/25 05:24:58;;;;;;;14.40;10.57;;;1.40;99.90;;;1.18;93.48;97937.66;5030051;28;20925;-71
2022/11/25 05:27:27;;;;;;;16.07;11.20;;;1.40;99.90;;;1.24;93.07;97931.69;5030586;28;20946;-74
2022/11/25 05:29:54;;;;;;;15.63;10.57;;;1.40;99.90;;;1.11;93.17;97940.91;5025821;28;21025;-72
2022/11/25 05:32:21;;;;;;;16.10;9.97;;;1.40;99.90;;;1.01;92.88;97908.28;5045688;28;20455;-71
2022/11/25 05:34:50;;;;;;;13.93;11.67;;;1.40;99.90;;;1.18;92.67;97934.97;5029395;28;20846;-73
2022/11/25 05:37:17;;;;;;;15.80;10.83;;;1.30;99.90;;;1.06;92.80;97932.56;5026092;28;20459;-73
2022/11/25 05:39:44;;;;;;;15.47;11.50;;;1.30;99.90;;;1.12;92.88;97942.59;5021507;28;20519;-70
2022/11/25 05:42:11;;;;;;;16.83;12.03;;;1.30;99.90;;;1.03;92.89;97940.03;5018040;28;20466;-70
2022/11/25 05:44:39;;;;;;;15.67;12.30;;;1.20;99.90;;;0.94;93.68;97931.16;5019170;28;20470;-71
2022/11/25 05:47:06;;;;;;;18.10;12.70;;;1.10;99.90;;;1.07;93.39;97926.25;5033478;28;20478;-71
2022/11/25 05:49:34;;;;;;;14.63;10.87;;;1.20;99.90;;;1.10;93.51;97944.56;5022255;28;20880;-69
2022/11/25 05:52:02;;;;;;;19.70;12.00;;;1.30;99.90;;;1.13;93.38;97952.22;5021955;28;20522;-70
2022/11/25 05:54:29;;;;;;;15.60;12.20;;;1.30;99.90;;;1.17;93.11;97950.09;5023923;28;20438;-70
2022/11/25 05:56:57;;;;;;;16.00;12.00;;;1.30;99.90;;;1.16;93.52;97956.41;5021018;28;20465;-71
2022/11/25 05:59:24;;;;;;;19.00;12.67;;;1.30;99.90;;;1.21;93.72;97950.63;5028612;28;20485;-71
2022/11/25 06:01:53;;;;;;;18.83;13.43;;;1.40;99.90;;;1.21;94.26;97956.78;5017436;28;20459;-70
2022/11/25 06:04:20;;;;;;;21.33;13.30;;;1.40;99.90;;;0.98;93.86;97901.44;5023905;28;21120;-71
2022/11/25 06:06:47;;;;;;;22.03;13.90;;;1.50;99.90;;;1.30;93.69;97946.19;5042187;28;20440;-72
2022/11/25 06:09:16;;;;;;;26.70;19.53;;;1.50;99.90;;;1.32;94.50;97942.38;5027501;28;20460;-71
2022/11/25 06:11:43;;;;;;;19.47;13.43;;;1.60;99.90;;;1.36;94.11;97925.09;5022342;28;20458;-70
2022/11/25 06:14:11;;;;;;;22.23;12.93;;;1.70;99.90;;;1.35;93.88;97928.75;5020657;28;20498;-69
2022/11/25 06:16:38;;;;;;;20.30;13.83;;;1.70;99.90;;;1.51;94.38;97938.63;5028309;28;20473;-70
2022/11/25 06:19:05;;;;;;;23.90;15.57;;;1.70;99.90;;;1.45;94.77;97933.13;5034489;28;20474;-71
2022/11/25 06:21:33;;;;;;;20.00;12.80;;;1.80;99.90;;;1.51;94.55;97932.47;5019420;28;20502;-71
2022/11/25 06:24:00;;;;;;;20.20;13.30;;;1.80;99.90;;;1.45;95.04;97939.28;5026201;28;20746;-71
2022/11/25 06:26:28;;;;;;;20.67;14.53;;;1.80;99.90;;;1.63;94.31;97941.88;5026805;28;20460;-70
2022/11/25 06:28:56;;;;;;;17.87;14.40;;;1.90;99.90;;;1.49;94.17;97937.13;5025831;28;20474;-71
2022/11/25 06:31:26;;;;;;;21.30;14.10;;;1.90;99.90;;;1.58;94.14;97949.47;5037039;28;20518;-74
2022/11/25 06:33:54;;;;;;;20.47;12.80;;;1.90;99.90;;;1.66;94.11;97957.53;5025733;28;20484;-75
2022/11/25 06:36:22;;;;;;;22.97;15.40;;;1.90;99.90;;;1.68;94.07;97960.03;5020964;28;20481;-71
2022/11/25 06:38:53;;;;;;;26.50;15.10;;;1.90;99.90;;;1.78;93.74;97957.25;5018834;28;20485;-72
2022/11/25 06:41:22;;;;;;;26.70;16.13;;;2.00;99.90;;;1.73;93.55;97968.38;5022233;28;20692;-70
2022/11/25 06:43:51;;;;;;;22.17;17.20;;;1.90;99.90;;;1.72;93.85;97965.84;5024283;28;20863;-70
2022/11/25 06:46:20;;;;;;;22.70;16.40;;;2.00;99.90;;;1.78;94.36;97975.91;5024474;28;20519;-72
2022/11/25 06:48:47;;;;;;;23.10;15.50;;;2.00;99.90;;;1.89;93.71;97967.59;5039436;28;20466;-70
2022/11/25 06:51:15;;;;;;;22.07;16.70;;;2.10;99.90;;;1.84;93.14;97967.25;5023770;28;20467;-69
2022/11/25 06:53:43;;;;;;;28.93;14.60;;;2.10;99.90;;;1.81;93.18;97957.72;5042623;28;20459;-69
2022/11/25 06:56:14;;;;;;;21.43;15.27;;;2.10;99.90;;;1.97;93.22;97967.63;5038419;28;20956;-71
2022/11/25 06:58:42;;;;;;;27.00;14.53;;;2.10;99.90;;;2.04;93.42;97974.97;5026294;28;20664;-70
2022/11/25 07:01:15;;;;;;;20.97;14.57;;;2.10;99.90;;;1.88;92.98;97959.78;5016764;28;20479;-70
2022/11/25 07:03:42;;;;;;;26.30;16.00;;;2.20;99.90;;;2.07;92.79;97996.00;5035323;28;20545;-72
2022/11/25 07:06:11;;;;;;;22.83;16.50;;;2.20;99.90;;;2.31;93.18;97997.03;5019860;28;20468;-71
2022/11/25 07:08:39;;;;;;;25.83;16.47;;;2.40;99.90;;;2.30;92.36;97998.03;5019075;28;20477;-71
2022/11/25 07:11:10;;;;;;;20.10;15.17;;;2.50;99.90;;;2.26;91.92;97998.38;5022680;28;20462;-70
2022/11/25 07:13:38;;;;;;;19.13;13.60;;;2.50;99.90;;;2.25;92.49;97980.72;5041566;28;20460;-71
2022/11/25 07:16:07;;;;;;;18.83;13.70;;;2.50;99.90;;;2.19;92.46;97997.34;5038723;28;20465;-69
2022/11/25 07:18:38;;;;;;;18.90;12.03;;;2.50;99.90;;;2.20;92.21;98001.69;5019640;28;20486;-71
2022/11/25 07:21:07;;;;;;;19.80;13.10;;;2.50;99.90;;;2.12;92.35;97983.00;5011965;28;20460;-70
2022/11/25 07:23:36;;;;;;;22.03;12.50;;;2.50;99.90;;;2.34;92.06;97997.56;5016856;28;20484;-70
2022/11/25 07:26:06;;;;;;;21.83;13.47;;;2.50;99.90;;;2.33;91.87;97995.88;5031131;28;20827;-71
2022/11/25 07:28:34;;;;;;;19.00;12.60;;;2.60;99.90;;;2.26;91.60;97994.84;5012594;28;20461;-71
2022/11/25 07:31:07;;;;;;;15.50;12.10;;;2.60;99.90;;;2.35;91.74;98001.03;5028701;28;20469;-71
2022/11/25 07:33:37;;;;;;;15.10;11.77;;;2.60;99.90;;;2.32;90.99;98007.56;5019422;28;20456;-72
2022/11/25 07:36:05;;;;;;;20.33;11.63;;;2.60;99.90;;;2.29;91.91;98001.69;5028589;28;20454;-72
2022/11/25 07:38:33;;;;;;;17.07;12.30;;;2.60;99.90;;;2.43;91.01;97993.06;5018037;28;20471;-72
2022/11/25 07:41:06;;;;;;;16.80;10.60;;;2.70;99.90;;;2.42;90.45;97991.41;5012569;28;20490;-71
2022/11/25 07:43:33;;;;;;;14.00;10.33;;;2.70;99.90;;;2.41;91.10;98014.56;5019296;28;20457;-71
2022/11/25 07:46:12;;;;;;;15.57;11.10;;;2.60;99.90;;;2.65;90.19;98020.09;5014414;28;20798;-72
2022/11/25 07:48:42;;;;;;;14.33;9.57;;;2.80;99.90;;;2.70;89.52;98031.13;5035992;28;20462;-70
2022/11/25 07:51:21;;;;;;;12.40;9.83;;;2.80;99.90;;;2.59;89.72;98020.78;5030227;28;20452;-72
2022/11/25 07:53:50;;;;;;;15.57;10.53;;;2.80;99.90;;;2.24;90.18;97963.03;5022541;28;20459;-71
2022/11/25 07:56:20;;;;;;;16.07;10.63;;;2.80;99.90;;;2.87;89.81;98026.63;5028262;28;20465;-70
2022/11/25 07:58:49;;;;;;;12.83;10.20;;;2.90;99.90;;;2.86;89.07;98018.81;5015635;28;20482;-71
2022/11/25 08:01:17;;;;;;;14.87;10.57;;;2.90;99.90;;;2.48;88.42;97974.72;5017540;28;20981;-71
2022/11/25 08:03:49;;;;;;;18.73;9.60;;;3.00;99.90;;;2.87;88.51;98033.81;5020369;28;20826;-71
2022/11/25 08:06:18;;;;;;;11.80;9.87;;;3.00;99.90;;;2.79;88.94;98034.63;5012639;28;20445;-71
2022/11/25 08:08:46;;;;;;;13.33;9.40;;;3.00;99.90;;;2.80;88.46;98038.97;5017158;28;20724;-72
2022/11/25 08:11:16;;;;;;;14.17;10.70;;;3.00;99.90;;;2.90;87.95;98041.50;5016161;28;20462;-71
2022/11/25 08:13:43;;;;;;;11.87;9.90;;;3.10;99.90;;;2.83;88.20;98027.97;5023067;28;20829;-69
2022/11/25 08:16:12;;;;;;;12.77;10.23;;;3.10;99.90;;;2.83;88.56;98041.31;5021035;28;20448;-71
2022/11/25 08:18:40;;;;;;;15.03;10.33;;;3.10;99.90;;;2.82;88.77;98043.16;5015773;28;20478;-71
2022/11/25 08:21:12;;;;;;;15.50;9.90;;;3.00;99.90;;;2.82;89.19;98043.16;5022320;28;20556;-70
2022/11/25 08:23:42;;;;;;;12.27;9.23;;;3.10;99.90;;;2.96;88.44;98043.50;5020325;28;20523;-72
2022/11/25 08:26:13;;;;;;;10.63;9.07;;;3.20;99.90;;;2.72;88.50;97978.44;5020739;28;20910;-70
2022/11/25 08:28:42;;;;;;;14.87;9.60;;;3.20;99.90;;;3.17;88.38;98044.84;5016330;28;20453;-71
2022/11/25 08:31:13;;;;;;;12.57;9.33;;;3.20;99.90;;;3.04;88.42;98037.34;5031766;28;21062;-71
2022/11/25 08:33:41;;;;;;;13.40;9.77;;;3.20;99.90;;;3.10;88.48;98028.66;5019429;28;20455;-71
2022/11/25 08:36:11;;;;;;;13.37;8.90;;;3.20;99.90;;;2.82;88.96;98043.16;5034169;28;20460;-72
2022/11/25 08:38:39;;;;;;;12.40;10.37;;;3.20;99.90;;;2.77;89.44;98008.13;5019641;28;20492;-72
2022/11/25 08:41:11;;;;;;;13.37;10.40;;;3.10;99.90;;;2.97;88.64;98031.84;5011574;28;20505;-71
2022/11/25 08:43:38;;;;;;;10.17;9.07;;;3.10;99.90;;;3.06;89.23;98030.81;5038609;28;20441;-73
2022/11/25 08:46:09;;;;;;;9.73;8.00;;;3.20;99.90;;;2.95;89.63;98031.13;5018712;28;20461;-72
2022/11/25 08:48:37;;;;;;;10.13;9.03;;;3.20;99.90;;;3.27;88.67;98040.16;5022885;28;20453;-74
2022/11/25 08:51:11;;;;;;;12.00;9.10;;;3.40;99.90;;;3.24;88.22;98038.66;5029153;28;20531;-70
2022/11/25 08:53:40;;;;;;;12.33;8.90;;;3.50;99.90;;;3.57;88.70;98043.13;5023978;28;20463;-70
2022/11/25 08:56:08;;;;;;;11.70;8.43;;;3.70;99.90;;;3.63;88.43;98036.25;5040445;28;20505;-71
2022/11/25 08:58:36;;;;;;;10.23;8.10;;;3.70;99.90;;;3.60;86.16;98045.47;5030591;28;20493;-72
2022/11/25 09:01:04;;;;;;;8.40;7.10;;;3.80;98.40;;;3.21;87.48;97987.41;5022565;28;20464;-72
2022/11/25 09:03:33;;;;;;;9.93;7.70;;;3.80;96.70;;;3.62;85.65;98048.78;5038605;28;20472;-71
2022/11/25 09:06:01;;;;;;;13.30;7.90;;;3.90;95.90;;;3.86;86.21;98059.59;5023672;28;20449;-72
2022/11/25 09:08:30;;;;;;;9.90;6.97;;;4.00;97.40;;;3.87;85.72;98056.78;5037078;28;20457;-71
2022/11/25 09:10:57;;;;;;;8.80;7.40;;;4.10;95.80;;;3.85;85.61;98058.75;5023675;28;20449;-69
2022/11/25 09:13:25;;;;;;;10.20;8.10;;;4.10;95.30;;;3.91;85.59;98057.22;5021515;28;20522;-72
2022/11/25 09:15:52;;;;;;;8.90;7.67;;;4.10;95.40;;;3.68;84.73;97989.31;5022668;28;20491;-73
2022/11/25 09:18:24;;;;;;;9.53;7.23;;;4.20;94.70;;;3.79;85.13;97989.97;5022306;28;20471;-70
2022/11/25 09:20:53;;;;;;;8.67;7.50;;;4.30;94.70;;;4.21;83.76;98052.13;5017769;28;20478;-71
2022/11/25 09:23:22;;;;;;;9.87;7.40;;;4.40;93.90;;;4.51;84.74;98054.97;5020426;28;21295;-69
2022/11/25 09:25:53;;;;;;;11.10;6.93;;;4.50;95.00;;;4.56;83.18;98066.00;5022364;28;20462;-72
2022/11/25 09:28:20;;;;;;;8.17;6.30;;;4.70;93.40;;;4.44;82.68;98072.75;5023987;28;21259;-71
2022/11/25 09:30:48;;;;;;;10.00;7.10;;;4.60;92.30;;;4.52;83.22;98062.84;5040765;28;20461;-74
2022/11/25 09:33:15;;;;;;;10.23;7.20;;;4.70;92.60;;;4.67;83.50;98067.44;5024983;28;20910;-72
2022/11/25 09:35:42;;;;;;;7.87;6.47;;;4.80;92.90;;;4.72;82.54;98061.56;5037962;28;20458;-71
2022/11/25 09:38:10;;;;;;;7.73;6.63;;;4.90;91.50;;;4.70;81.52;98056.38;5021402;28;20461;-70
2022/11/25 09:40:48;;;;;;;7.70;5.60;;;5.00;90.90;;;5.02;80.94;98065.22;5023756;28;20483;-71
2022/11/25 09:49:29;;;;;;;6.57;5.07;;;5.40;90.80;;;5.32;79.74;98033.16;5022647;28;20466;-72
2022/11/25 09:52:08;;;;;;;6.20;4.80;;;5.40;89.00;;;5.51;78.19;98044.38;5016668;28;20909;-71
2022/11/25 09:54:39;;;;;;;5.50;5.00;;;5.60;88.20;;;5.57;77.04;98049.03;5031236;28;20512;-70
2022/11/25 09:57:21;;;;;;;6.13;5.00;;;5.80;86.60;;;6.04;78.81;98054.25;5021183;28;20973;-72
2022/11/25 10:00:05;;;;;;;5.83;4.63;;;6.00;88.30;;;6.37;76.63;98052.03;5034744;28;20493;-72
2022/11/25 10:02:40;;;;;;;6.90;5.00;;;6.40;86.50;;;6.37;75.52;98057.38;5025090;28;20462;-72
2022/11/25 10:05:14;;;;;;;7.07;4.90;;;6.50;84.90;;;6.38;75.09;98055.53;5021591;28;20469;-72
2022/11/25 10:07:45;;;;;;;7.00;4.70;;;6.60;84.60;;;6.58;74.38;98054.91;5039150;28;20857;-71
2022/11/25 10:10:22;;;;;;;6.30;5.10;;;6.60;84.40;;;6.83;72.55;98059.94;5037170;28;20968;-71
2022/11/25 10:12:51;;;;;;;4.43;4.03;;;6.80;83.90;;;7.07;72.21;98051.53;5023999;28;20472;-72
2022/11/25 10:15:27;;;;;;;5.13;4.00;;;7.10;82.70;;;6.93;72.37;98045.19;5024171;28;20465;-72
2022/11/25 10:18:00;;;;;;;5.30;4.50;;;7.10;82.10;;;7.19;72.17;98042.94;5023747;28;20458;-71
2022/11/25 10:20:31;;;;;;;6.90;4.50;;;7.20;82.20;;;7.47;72.51;98051.06;5022612;28;21012;-71
2022/11/25 10:23:03;;;;;;;6.83;4.40;;;7.40;82.90;;;7.16;71.23;98032.56;5020586;28;20960;-71
2022/11/25 10:25:35;;;;;;;5.70;4.40;;;7.40;81.60;;;7.35;69.98;98036.47;5018542;28;20527;-71
2022/11/25 10:28:05;;;;;;;6.40;4.53;;;7.40;80.50;;;6.78;70.98;97994.22;5022659;28;20454;-71
2022/11/25 10:30:42;;;;;;;4.70;4.20;;;7.30;80.80;;;6.66;71.55;98025.28;5022481;28;20947;-72
2022/11/25 10:33:18;;;;;;;4.40;4.00;;;7.00;80.60;;;6.68;71.28;98019.75;5019076;28;20808;-72
2022/11/25 10:35:50;;;;;;;3.87;3.47;;;7.00;80.50;;;6.52;70.13;97979.50;5034198;28;20935;-71
2022/11/25 10:38:24;;;;;;;6.37;4.63;;;6.90;80.20;;;7.01;70.42;98028.09;5040488;28;20448;-72
2022/11/25 10:40:52;;;;;;;4.43;3.87;;;7.10;80.60;;;6.91;70.23;98014.19;5022418;28;20473;-72
2022/11/25 10:43:20;;;;;;;5.30;4.07;;;7.10;80.50;;;7.23;68.93;98033.47;5020448;28;20474;-71
2022/11/25 10:46:00;;;;;;;4.97;4.30;;;7.20;80.20;;;7.11;69.31;98040.41;5037464;28;21264;-71
2022/11/25 10:48:53;;;;;;;5.43;4.50;;;7.20;80.00;;;6.97;69.37;98024.16;5021624;28;20573;-72